createdAt,value
2022-08-08T00:00:54.390Z,55.07
2022-08-08T00:03:01.286Z,55.25
2022-08-08T00:06:03.751Z,55.51
2022-08-08T00:08:34.021Z,55.72
2022-08-08T00:11:14.736Z,55.75
2022-08-08T00:14:15.290Z,56.21
2022-08-08T00:17:07.103Z,56.36
2022-08-08T00:20:14.814Z,56.32
2022-08-08T00:22:47.686Z,56.23
2022-08-08T00:25:21.089Z,56.21
2022-08-08T00:27:53.370Z,56.20
2022-08-08T00:30:23.786Z,56.41
2022-08-08T00:32:56.217Z,56.54
2022-08-08T00:35:48.088Z,56.45
2022-08-08T00:38:44.264Z,56.89
2022-08-08T00:42:07.973Z,57.34
2022-08-08T00:44:44.138Z,57.04
2022-08-08T00:48:02.199Z,57.25
2022-08-08T00:50:48.298Z,57.44
2022-08-08T00:54:04.453Z,57.56
2022-08-08T00:56:53.502Z,57.33
2022-08-08T00:59:46.606Z,57.49
2022-08-08T01:03:59.438Z,57.67
2022-08-08T01:06:08.042Z,57.90
2022-08-08T01:09:35.767Z,58.16
2022-08-08T01:12:06.597Z,57.84
2022-08-08T01:15:03.575Z,58.18
2022-08-08T01:17:57.028Z,58.25
2022-08-08T01:20:55.780Z,58.16
2022-08-08T01:24:02.883Z,58.30
2022-08-08T01:26:36.079Z,58.47
2022-08-08T01:29:59.863Z,58.50
2022-08-08T01:33:23.368Z,58.43
2022-08-08T01:36:19.967Z,59.04
2022-08-08T01:39:23.114Z,59.36
2022-08-08T01:42:06.174Z,59.65
2022-08-08T01:44:41.740Z,59.40
2022-08-08T01:48:14.413Z,59.74
2022-08-08T01:50:37.848Z,59.26
2022-08-08T01:54:05.490Z,59.70
2022-08-08T01:56:30.441Z,59.88
2022-08-08T01:59:17.125Z,59.65
2022-08-08T02:02:05.250Z,59.84
2022-08-08T02:04:52.148Z,59.44
2022-08-08T02:07:27.728Z,59.97
2022-08-08T02:10:45.038Z,60.23
2022-08-08T02:13:53.212Z,60.22
2022-08-08T02:16:23.814Z,60.23
2022-08-08T02:19:41.812Z,60.12
2022-08-08T02:22:31.878Z,60.37
2022-08-08T02:25:46.880Z,60.67
2022-08-08T02:28:37.064Z,60.22
2022-08-08T02:31:58.988Z,60.52
2022-08-08T02:35:08.884Z,60.57
2022-08-08T02:37:58.035Z,60.72
2022-08-08T02:40:50.274Z,60.55
2022-08-08T02:44:37.745Z,61.01
2022-08-08T02:46:37.488Z,61.03
2022-08-08T02:49:27.549Z,61.30
2022-08-08T02:52:34.888Z,61.04
2022-08-08T02:55:37.131Z,61.18
2022-08-08T02:58:42.058Z,61.41
2022-08-08T03:01:39.763Z,61.66
2022-08-08T03:05:05.201Z,62.06
2022-08-08T03:07:58.458Z,62.18
2022-08-08T03:11:03.206Z,62.00
2022-08-08T03:15:59.705Z,62.11
2022-08-08T03:16:50.739Z,62.28
2022-08-08T03:19:37.280Z,62.41
2022-08-08T03:22:05.270Z,62.36
2022-08-08T03:24:52.809Z,62.31
2022-08-08T03:27:35.814Z,62.42
2022-08-08T03:30:10.813Z,62.38
2022-08-08T03:33:07.902Z,62.41
2022-08-08T03:35:58.912Z,62.48
2022-08-08T03:38:56.736Z,62.80
2022-08-08T03:42:11.392Z,62.79
2022-08-08T03:44:00.036Z,62.97
2022-08-08T03:46:32.720Z,63.30
2022-08-08T03:49:09.308Z,63.29
2022-08-08T03:51:53.888Z,63.53
2022-08-08T03:54:41.778Z,63.67
2022-08-08T03:58:32.370Z,63.84
2022-08-08T04:00:18.242Z,63.63
2022-08-08T04:02:56.420Z,63.79
2022-08-08T04:05:35.091Z,63.98
2022-08-08T04:08:08.243Z,64.33
2022-08-08T04:10:36.221Z,64.32
2022-08-08T04:13:18.226Z,64.40
2022-08-08T04:15:54.846Z,64.69
2022-08-08T04:18:35.926Z,64.74
2022-08-08T04:21:09.421Z,64.88
2022-08-08T04:24:12.240Z,64.54
2022-08-08T04:26:25.788Z,64.90
2022-08-08T04:28:54.635Z,64.82
2022-08-08T04:31:30.836Z,64.88
2022-08-08T04:34:08.566Z,64.73
2022-08-08T04:36:36.149Z,64.69
2022-08-08T04:40:05.557Z,64.87
2022-08-08T04:41:50.729Z,64.67
2022-08-08T04:44:17.955Z,65.01
2022-08-08T04:46:46.516Z,64.81
2022-08-08T04:49:13.538Z,64.75
2022-08-08T04:51:57.474Z,64.63
2022-08-08T04:54:38.364Z,64.81
2022-08-08T04:57:08.840Z,64.71
2022-08-08T04:59:41.905Z,65.13
2022-08-08T05:02:13.766Z,65.05
2022-08-08T05:04:44.358Z,65.07
2022-08-08T05:07:11.931Z,64.91
2022-08-08T05:09:42.211Z,64.79
2022-08-08T05:12:09.503Z,65.27
2022-08-08T05:14:47.542Z,64.89
2022-08-08T05:17:15.731Z,64.42
2022-08-08T05:20:11.998Z,63.89
2022-08-08T05:22:36.021Z,63.49
2022-08-08T05:25:04.030Z,63.42
2022-08-08T05:27:33.432Z,63.10
2022-08-08T05:30:00.498Z,62.54
2022-08-08T05:32:36.481Z,62.39
2022-08-08T05:35:05.720Z,62.67
2022-08-08T05:37:52.791Z,62.59
2022-08-08T05:40:27.974Z,62.65
2022-08-08T05:43:03.456Z,61.81
2022-08-08T05:45:54.946Z,61.36
2022-08-08T05:48:28.600Z,60.92
2022-08-08T05:51:14.912Z,60.10
2022-08-08T05:54:26.012Z,57.67
2022-08-08T05:56:42.390Z,55.40
2022-08-08T05:59:58.915Z,54.84
2022-08-08T06:02:40.648Z,54.77
2022-08-08T06:05:33.209Z,51.16
2022-08-08T06:08:02.488Z,49.77
2022-08-08T06:10:40.721Z,49.43
2022-08-08T06:13:09.189Z,48.67
2022-08-08T06:15:50.688Z,47.40
2022-08-08T06:18:25.638Z,45.86
2022-08-08T06:20:57.624Z,45.01
2022-08-08T06:23:52.547Z,45.05
2022-08-08T06:26:42.926Z,43.83
2022-08-08T06:29:26.634Z,43.86
2022-08-08T06:32:10.211Z,43.45
2022-08-08T06:34:52.632Z,42.26
2022-08-08T06:37:37.945Z,40.91
2022-08-08T06:40:16.585Z,40.16
2022-08-08T06:42:56.562Z,40.19
2022-08-08T06:45:33.205Z,39.96
2022-08-08T06:48:02.691Z,39.43
2022-08-08T06:50:38.460Z,39.29
2022-08-08T06:53:17.290Z,39.10
2022-08-08T06:56:02.112Z,38.83
2022-08-08T06:58:33.126Z,38.85
2022-08-08T07:01:01.908Z,37.27
2022-08-08T07:04:36.857Z,36.83
2022-08-08T07:06:56.782Z,37.36
2022-08-08T07:09:41.743Z,36.08
2022-08-08T07:12:23.555Z,35.92
2022-08-08T07:15:04.745Z,35.84
2022-08-08T07:18:01.680Z,34.30
2022-08-08T07:20:50.377Z,33.84
2022-08-08T07:23:24.434Z,33.75
2022-08-08T07:25:56.589Z,34.76
2022-08-08T07:28:31.607Z,33.98
2022-08-08T07:31:02.358Z,34.00
2022-08-08T07:33:38.148Z,34.31
2022-08-08T07:36:20.177Z,33.53
2022-08-08T07:38:52.958Z,33.49
2022-08-08T07:41:25.039Z,32.44
2022-08-08T07:43:56.041Z,32.51
2022-08-08T07:46:30.248Z,31.74
2022-08-08T07:49:03.345Z,32.18
2022-08-08T07:51:44.374Z,30.09
2022-08-08T07:54:29.267Z,29.27
2022-08-08T07:57:29.199Z,29.69
2022-08-08T08:00:16.162Z,28.93
2022-08-08T08:03:11.119Z,28.95
2022-08-08T08:05:50.805Z,28.37
2022-08-08T08:08:21.518Z,29.57
2022-08-08T08:10:56.977Z,28.02
2022-08-08T08:14:06.155Z,27.19
2022-08-08T08:16:27.254Z,27.35
2022-08-08T08:19:10.335Z,26.65
2022-08-08T08:21:56.985Z,26.03
2022-08-08T08:24:35.171Z,25.47
2022-08-08T08:27:03.777Z,25.58
2022-08-08T08:29:32.856Z,24.24
2022-08-08T08:32:05.382Z,24.59
2022-08-08T08:34:34.047Z,23.99
2022-08-08T08:37:07.756Z,24.93
2022-08-08T08:39:59.522Z,24.02
2022-08-08T08:42:31.828Z,24.18
2022-08-08T08:45:10.116Z,22.34
2022-08-08T08:47:53.166Z,22.48
2022-08-08T08:50:32.691Z,23.07
2022-08-08T08:53:54.142Z,22.71
2022-08-08T08:56:04.837Z,22.00
2022-08-08T08:58:43.048Z,22.45
2022-08-08T09:01:17.883Z,22.10
2022-08-08T09:03:50.979Z,21.65
2022-08-08T09:06:33.537Z,21.45
2022-08-08T09:09:26.066Z,21.66
2022-08-08T09:12:10.550Z,22.17
2022-08-08T09:14:44.816Z,21.46
2022-08-08T09:17:18.795Z,22.58
2022-08-08T09:21:58.260Z,22.32
2022-08-08T09:22:35.723Z,22.22
2022-08-08T09:25:05.147Z,22.65
2022-08-08T09:27:57.575Z,22.74
2022-08-08T09:30:24.800Z,23.63
2022-08-08T09:33:12.805Z,23.92
2022-08-08T09:35:50.041Z,23.30
2022-08-08T09:38:31.962Z,24.28
2022-08-08T09:41:05.180Z,25.32
2022-08-08T09:44:04.672Z,25.39
2022-08-08T09:46:25.687Z,24.56
2022-08-08T09:49:04.383Z,24.76
2022-08-08T09:52:06.116Z,23.38
2022-08-08T09:54:45.105Z,23.14
2022-08-08T09:57:18.923Z,23.71
2022-08-08T10:00:21.043Z,23.85
2022-08-08T10:02:47.109Z,23.83
2022-08-08T10:05:26.198Z,24.67
2022-08-08T10:08:00.580Z,24.51
2022-08-08T10:10:32.875Z,24.67
2022-08-08T10:13:00.631Z,22.89
2022-08-08T10:15:42.383Z,22.64
2022-08-08T10:18:33.687Z,21.23
2022-08-08T10:21:26.258Z,21.83
2022-08-08T10:23:59.905Z,21.71
2022-08-08T10:26:58.665Z,20.08
2022-08-08T10:29:57.131Z,21.24
2022-08-08T10:32:38.238Z,19.81
2022-08-08T10:35:30.294Z,20.61
2022-08-08T10:38:05.468Z,19.81
2022-08-08T10:40:33.131Z,18.76
2022-08-08T10:43:04.954Z,18.47
2022-08-08T10:45:42.927Z,18.27
2022-08-08T10:48:32.230Z,17.94
2022-08-08T10:51:00.308Z,17.90
2022-08-08T10:53:56.634Z,17.78
2022-08-08T10:56:27.827Z,17.93
2022-08-08T10:59:00.897Z,17.28
2022-08-08T11:01:33.521Z,17.29
2022-08-08T11:04:02.629Z,17.24
2022-08-08T11:06:35.951Z,16.46
2022-08-08T11:09:20.033Z,17.10
2022-08-08T11:12:04.517Z,16.23
2022-08-08T11:14:57.228Z,16.21
2022-08-08T11:18:00.272Z,17.05
2022-08-08T11:20:28.070Z,17.11
2022-08-08T11:22:57.370Z,18.03
2022-08-08T11:25:52.663Z,18.48
2022-08-08T11:28:15.811Z,19.08
2022-08-08T11:30:50.236Z,19.18
2022-08-08T11:33:51.096Z,18.12
2022-08-08T11:36:13.280Z,19.69
2022-08-08T11:38:54.340Z,18.08
2022-08-08T11:41:28.081Z,18.74
2022-08-08T11:44:00.544Z,16.85
2022-08-08T11:46:31.463Z,14.95
2022-08-08T11:49:07.006Z,14.90
2022-08-08T11:51:39.836Z,14.92
2022-08-08T11:54:32.256Z,15.31
2022-08-08T11:57:21.873Z,16.12
2022-08-08T12:00:06.297Z,14.21
2022-08-08T12:02:51.639Z,14.24
2022-08-08T12:05:22.791Z,12.59
2022-08-08T12:07:53.978Z,12.60
2022-08-08T12:10:24.747Z,12.42
2022-08-08T12:13:04.637Z,12.03
2022-08-08T12:15:41.934Z,11.96
2022-08-08T12:18:21.499Z,11.32
2022-08-08T12:20:53.415Z,12.09
2022-08-08T12:23:42.657Z,12.40
2022-08-08T12:26:28.409Z,12.66
2022-08-08T12:29:17.346Z,13.38
2022-08-08T12:31:53.778Z,12.48
2022-08-08T12:34:41.569Z,12.91
2022-08-08T12:37:12.267Z,12.71
2022-08-08T12:40:00.364Z,12.35
2022-08-08T12:42:27.373Z,11.90
2022-08-08T12:45:53.780Z,12.31
2022-08-08T12:48:10.489Z,12.27
2022-08-08T12:50:54.959Z,12.88
2022-08-08T12:53:37.885Z,12.76
2022-08-08T12:56:19.829Z,12.60
2022-08-08T12:58:54.531Z,12.79
2022-08-08T13:01:36.561Z,13.24
2022-08-08T13:04:24.269Z,13.20
2022-08-08T13:07:01.032Z,12.81
2022-08-08T13:10:05.206Z,13.41
2022-08-08T13:12:39.652Z,13.19
2022-08-08T13:15:11.011Z,13.19
2022-08-08T13:18:07.577Z,13.89
2022-08-08T13:20:27.436Z,14.83
2022-08-08T13:23:26.876Z,14.95
2022-08-08T13:25:43.640Z,16.11
2022-08-08T13:28:17.602Z,15.76
2022-08-08T13:30:45.374Z,17.12
2022-08-08T13:33:18.326Z,16.68
2022-08-08T13:35:50.756Z,17.99
2022-08-08T13:38:18.270Z,18.38
2022-08-08T13:40:46.013Z,18.56
2022-08-08T13:43:16.645Z,18.12
2022-08-08T13:45:47.204Z,18.65
2022-08-08T13:48:25.092Z,18.41
2022-08-08T13:50:56.956Z,18.91
2022-08-08T13:53:33.841Z,18.49
2022-08-08T13:56:06.024Z,19.01
2022-08-08T13:58:33.292Z,22.36
2022-08-08T14:01:12.562Z,23.49
2022-08-08T14:03:54.159Z,22.25
2022-08-08T14:06:34.364Z,20.89
2022-08-08T14:09:24.990Z,23.72
2022-08-08T14:11:50.330Z,22.51
2022-08-08T14:14:20.887Z,24.71
2022-08-08T14:16:52.792Z,22.04
2022-08-08T14:19:58.155Z,23.53
2022-08-08T14:22:22.583Z,21.51
2022-08-08T14:25:00.468Z,22.09
2022-08-08T14:27:29.113Z,22.24
2022-08-08T14:30:19.002Z,22.48
2022-08-08T14:32:53.282Z,21.70
2022-08-08T14:35:34.982Z,23.54
2022-08-08T14:38:09.353Z,23.00
2022-08-08T14:40:41.457Z,22.43
2022-08-08T14:43:31.228Z,21.76
2022-08-08T14:46:05.954Z,22.10
2022-08-08T14:48:57.206Z,22.82
2022-08-08T14:51:46.967Z,22.87
2022-08-08T14:54:21.738Z,23.06
2022-08-08T14:56:57.997Z,22.86
2022-08-08T14:59:44.483Z,22.95
2022-08-08T15:02:15.243Z,24.09
2022-08-08T15:04:42.886Z,23.58
2022-08-08T15:07:22.634Z,23.79
2022-08-08T15:09:50.045Z,23.15
2022-08-08T15:12:27.338Z,24.26
2022-08-08T15:14:54.863Z,23.96
2022-08-08T15:17:22.809Z,23.57
2022-08-08T15:19:51.849Z,23.93
2022-08-08T15:22:23.612Z,24.52
2022-08-08T15:24:51.386Z,23.32
2022-08-08T15:27:57.943Z,24.03
2022-08-08T15:30:08.068Z,24.62
2022-08-08T15:32:39.247Z,24.61
2022-08-08T15:35:07.476Z,24.54
2022-08-08T15:37:35.058Z,23.70
2022-08-08T15:40:02.284Z,23.97
2022-08-08T15:42:31.697Z,23.61
2022-08-08T15:45:01.402Z,24.07
2022-08-08T15:47:29.262Z,24.45
2022-08-08T15:49:58.962Z,24.51
2022-08-08T15:52:25.926Z,24.96
2022-08-08T15:54:53.727Z,25.32
2022-08-08T15:57:21.483Z,25.39
2022-08-08T16:00:05.393Z,25.17
2022-08-08T16:02:43.860Z,25.09
2022-08-08T16:05:16.971Z,25.54
2022-08-08T16:07:51.172Z,25.68
2022-08-08T16:13:11.362Z,25.77
2022-08-08T16:13:26.882Z,25.73
2022-08-08T16:15:59.635Z,25.87
2022-08-08T16:18:36.084Z,25.72
2022-08-08T16:21:03.670Z,27.10
2022-08-08T16:23:41.975Z,27.02
2022-08-08T16:26:13.114Z,27.64
2022-08-08T16:28:46.066Z,27.55
2022-08-08T16:31:13.361Z,27.66
2022-08-08T16:33:40.642Z,28.17
2022-08-08T16:36:12.878Z,28.41
2022-08-08T16:38:47.402Z,27.97
2022-08-08T16:41:22.573Z,28.57
2022-08-08T16:43:51.891Z,29.77
2022-08-08T16:46:37.980Z,29.16
2022-08-08T16:49:09.457Z,29.21
2022-08-08T16:55:00.065Z,29.92
2022-08-08T16:55:02.585Z,29.69
2022-08-08T16:57:22.656Z,30.07
2022-08-08T17:00:06.300Z,30.21
2022-08-08T17:02:39.461Z,30.35
2022-08-08T17:05:08.262Z,30.46
2022-08-08T17:07:37.875Z,31.14
2022-08-08T17:10:11.611Z,31.60
2022-08-08T17:12:52.498Z,31.84
2022-08-08T17:15:21.292Z,31.59
2022-08-08T17:18:02.703Z,31.93
2022-08-08T17:20:39.548Z,32.48
2022-08-08T17:23:17.788Z,32.76
2022-08-08T17:25:54.425Z,32.48
2022-08-08T17:28:31.496Z,32.76
2022-08-08T17:31:43.181Z,32.16
2022-08-08T17:34:36.347Z,32.26
2022-08-08T17:36:38.627Z,31.71
2022-08-08T17:40:04.100Z,31.29
2022-08-08T17:42:12.467Z,31.44
2022-08-08T17:44:39.935Z,31.81
2022-08-08T17:47:16.301Z,32.12
2022-08-08T17:49:52.353Z,31.76
2022-08-08T17:52:23.201Z,32.27
2022-08-08T17:54:55.767Z,31.01
2022-08-08T17:57:23.024Z,31.23
2022-08-08T17:59:49.885Z,30.35
2022-08-08T18:02:28.468Z,29.91
2022-08-08T18:04:58.726Z,30.97
2022-08-08T18:08:04.011Z,31.78
2022-08-08T18:10:15.623Z,31.76
2022-08-08T18:12:44.341Z,31.38
2022-08-08T18:15:13.184Z,31.32
2022-08-08T18:18:09.809Z,30.99
2022-08-08T18:20:43.367Z,31.11
2022-08-08T18:23:15.084Z,31.58
2022-08-08T18:25:42.927Z,31.66
2022-08-08T18:28:13.274Z,31.67
2022-08-08T18:30:41.652Z,32.03
2022-08-08T18:33:20.064Z,32.26
2022-08-08T18:36:02.855Z,32.13
2022-08-08T18:38:30.854Z,32.16
2022-08-08T18:40:59.153Z,32.67
2022-08-08T18:43:38.002Z,31.89
2022-08-08T18:46:54.833Z,32.68
2022-08-08T18:48:58.337Z,32.93
2022-08-08T18:51:53.856Z,33.08
2022-08-08T18:54:22.307Z,32.96
2022-08-08T18:56:53.868Z,33.11
2022-08-08T18:59:20.684Z,33.25
2022-08-08T19:02:24.895Z,33.31
2022-08-08T19:04:36.719Z,34.23
2022-08-08T19:07:04.007Z,33.29
2022-08-08T19:09:48.850Z,33.83
2022-08-08T19:12:19.217Z,34.21
2022-08-08T19:14:53.077Z,33.83
2022-08-08T19:17:29.560Z,34.07
2022-08-08T19:20:07.198Z,34.78
2022-08-08T19:22:35.936Z,34.99
2022-08-08T19:26:01.953Z,35.07
2022-08-08T19:27:56.036Z,35.03
2022-08-08T19:30:26.509Z,35.05
2022-08-08T19:32:58.213Z,35.87
2022-08-08T19:35:44.102Z,35.84
2022-08-08T19:38:17.457Z,36.11
2022-08-08T19:40:54.532Z,36.35
2022-08-08T19:43:28.338Z,36.67
2022-08-08T19:45:58.371Z,36.81
2022-08-08T19:48:30.818Z,36.83
2022-08-08T19:50:59.588Z,37.22
2022-08-08T19:53:52.225Z,37.78
2022-08-08T19:56:16.495Z,37.86
2022-08-08T19:58:52.939Z,37.79
2022-08-08T20:01:31.644Z,38.60
2022-08-08T20:04:09.432Z,38.52
2022-08-08T20:06:36.318Z,39.12
2022-08-08T20:09:04.428Z,39.51
2022-08-08T20:11:37.480Z,39.64
2022-08-08T20:14:33.406Z,39.70
2022-08-08T20:16:57.517Z,39.72
2022-08-08T20:19:26.847Z,39.87
2022-08-08T20:22:04.765Z,40.19
2022-08-08T20:24:31.954Z,40.61
2022-08-08T20:26:58.674Z,40.52
2022-08-08T20:29:26.085Z,41.12
2022-08-08T20:32:14.264Z,40.76
2022-08-08T20:34:47.801Z,41.37
2022-08-08T20:37:14.857Z,41.32
2022-08-08T20:39:51.863Z,41.28
2022-08-08T20:42:29.098Z,41.57
2022-08-08T20:44:57.148Z,41.74
2022-08-08T20:47:35.990Z,42.20
2022-08-08T20:50:05.166Z,42.58
2022-08-08T20:52:32.782Z,42.38
2022-08-08T20:55:01.101Z,42.49
2022-08-08T20:57:28.078Z,42.40
2022-08-08T20:59:56.134Z,42.54
2022-08-08T21:02:25.329Z,43.06
2022-08-08T21:05:00.488Z,43.26
2022-08-08T21:07:46.939Z,43.37
2022-08-08T21:10:15.800Z,43.36
2022-08-08T21:12:44.607Z,43.90
2022-08-08T21:15:16.535Z,43.61
2022-08-08T21:18:02.370Z,44.07
2022-08-08T21:20:34.036Z,44.35
2022-08-08T21:23:04.533Z,44.21
2022-08-08T21:25:36.707Z,44.45
2022-08-08T21:28:13.308Z,44.04
2022-08-08T21:30:45.244Z,44.18
2022-08-08T21:33:18.751Z,44.29
2022-08-08T21:36:18.150Z,44.25
2022-08-08T21:38:32.653Z,44.51
2022-08-08T21:40:59.390Z,43.48
2022-08-08T21:43:33.277Z,44.01
2022-08-08T21:48:07.615Z,43.97
2022-08-08T21:48:53.604Z,43.96
2022-08-08T21:54:18.924Z,44.02
2022-08-08T21:54:27.081Z,43.77
2022-08-08T21:56:59.654Z,43.65
2022-08-08T21:59:43.905Z,44.08
2022-08-08T22:02:16.067Z,43.81
2022-08-08T22:04:46.169Z,44.12
2022-08-08T22:07:14.168Z,43.93
2022-08-08T22:09:43.723Z,43.92
2022-08-08T22:12:15.002Z,44.18
2022-08-08T22:14:44.389Z,44.03
2022-08-08T22:17:17.066Z,43.78
2022-08-08T22:20:12.908Z,44.33
2022-08-08T22:22:34.487Z,44.05
2022-08-08T22:25:19.715Z,44.29
2022-08-08T22:28:02.675Z,44.75
2022-08-08T22:30:31.472Z,44.66
2022-08-08T22:32:58.278Z,44.48
2022-08-08T22:36:05.602Z,44.81
2022-08-08T22:38:17.590Z,44.76
2022-08-08T22:40:44.700Z,44.81
2022-08-08T22:43:11.769Z,44.91
2022-08-08T22:45:38.876Z,45.40
2022-08-08T22:48:06.192Z,45.05
2022-08-08T22:50:33.890Z,45.71
2022-08-08T22:54:30.278Z,45.60
2022-08-08T22:55:57.709Z,45.69
2022-08-08T22:58:34.794Z,45.48
2022-08-08T23:02:00.331Z,45.79
2022-08-08T23:03:56.963Z,45.74
2022-08-08T23:06:25.049Z,45.32
2022-08-08T23:08:55.306Z,45.53
2022-08-08T23:12:17.397Z,45.25
2022-08-08T23:14:15.091Z,46.02
2022-08-08T23:16:44.176Z,45.46
2022-08-08T23:19:15.361Z,45.99
2022-08-08T23:21:43.039Z,46.14
2022-08-08T23:24:12.598Z,46.06
2022-08-08T23:26:55.792Z,46.49
2022-08-08T23:29:25.385Z,46.56
2022-08-08T23:31:55.470Z,46.09
2022-08-08T23:34:22.518Z,46.00
2022-08-08T23:36:57.898Z,46.40
2022-08-08T23:39:32.061Z,46.61
2022-08-08T23:42:09.043Z,46.97
2022-08-08T23:44:39.664Z,47.57
2022-08-08T23:49:06.942Z,47.53
2022-08-08T23:50:03.115Z,47.40
2022-08-08T23:52:32.455Z,47.28
2022-08-08T23:55:07.107Z,47.28
2022-08-08T23:57:52.201Z,47.55
